sensor_id;sensor_type;location;lat;lon;timestamp;pressure;altitude;pressure_sealevel;temperature;humidity
5913;BME280;2982;42.684;23.356;2023-02-18T00:01:58;95671.19;;;2.47;100.00
5913;BME280;2982;42.684;23.356;2023-02-18T00:04:23;95671.19;;;2.49;100.00
5913;BME280;2982;42.684;23.356;2023-02-18T00:06:48;95662.13;;;2.36;100.00
5913;BME280;2982;42.684;23.356;2023-02-18T00:09:14;95667.22;;;2.25;100.00
5913;BME280;2982;42.684;23.356;2023-02-18T00:11:39;95663.84;;;2.31;100.00
5913;BME280;2982;42.684;23.356;2023-02-18T00:14:07;95666.41;;;2.23;100.00
5913;BME280;2982;42.684;23.356;2023-02-18T00:16:35;95659.75;;;2.20;100.00
5913;BME280;2982;42.684;23.356;2023-02-18T00:19:03;95658.06;;;2.21;100.00
5913;BME280;2982;42.684;23.356;2023-02-18T00:21:29;95649.75;;;2.19;100.00
5913;BME280;2982;42.684;23.356;2023-02-18T00:23:54;95645.63;;;2.10;100.00
5913;BME280;2982;42.684;23.356;2023-02-18T00:26:20;95628.97;;;2.06;100.00
5913;BME280;2982;42.684;23.356;2023-02-18T00:28:46;95610.66;;;2.00;100.00
5913;BME280;2982;42.684;23.356;2023-02-18T00:31:14;95630.53;;;2.16;100.00
5913;BME280;2982;42.684;23.356;2023-02-18T00:33:40;95632.25;;;2.13;100.00
5913;BME280;2982;42.684;23.356;2023-02-18T00:36:09;95622.28;;;2.05;100.00
5913;BME280;2982;42.684;23.356;2023-02-18T00:38:35;95619.81;;;2.04;100.00
5913;BME280;2982;42.684;23.356;2023-02-18T00:41:00;95618.94;;;2.09;100.00
5913;BME280;2982;42.684;23.356;2023-02-18T00:43:27;95614.75;;;2.08;100.00
5913;BME280;2982;42.684;23.356;2023-02-18T00:45:52;95617.31;;;2.01;100.00
5913;BME280;2982;42.684;23.356;2023-02-18T00:48:18;95618.16;;;2.01;100.00
5913;BME280;2982;42.684;23.356;2023-02-18T00:50:43;95592.34;;;1.93;100.00
5913;BME280;2982;42.684;23.356;2023-02-18T00:53:09;95616.50;;;1.97;100.00
5913;BME280;2982;42.684;23.356;2023-02-18T00:55:42;95613.25;;;1.89;100.00
5913;BME280;2982;42.684;23.356;2023-02-18T00:58:09;95614.13;;;1.87;100.00
5913;BME280;2982;42.684;23.356;2023-02-18T01:00:34;95618.31;;;1.85;100.00
5913;BME280;2982;42.684;23.356;2023-02-18T01:03:00;95590.91;;;1.63;100.00
5913;BME280;2982;42.684;23.356;2023-02-18T01:05:25;95605.91;;;1.69;100.00
5913;BME280;2982;42.684;23.356;2023-02-18T01:07:50;95622.50;;;1.81;100.00
5913;BME280;2982;42.684;23.356;2023-02-18T01:10:16;95622.47;;;1.84;100.00
5913;BME280;2982;42.684;23.356;2023-02-18T01:12:41;95612.50;;;1.80;100.00
5913;BME280;2982;42.684;23.356;2023-02-18T01:15:07;95620.00;;;1.81;100.00
5913;BME280;2982;42.684;23.356;2023-02-18T01:17:32;95605.81;;;1.78;100.00
5913;BME280;2982;42.684;23.356;2023-02-18T01:19:58;95608.31;;;1.80;100.00
5913;BME280;2982;42.684;23.356;2023-02-18T01:22:23;95615.88;;;1.74;100.00
5913;BME280;2982;42.684;23.356;2023-02-18T01:24:48;95625.88;;;1.77;100.00
5913;BME280;2982;42.684;23.356;2023-02-18T01:27:14;95610.06;;;1.72;100.00
5913;BME280;2982;42.684;23.356;2023-02-18T01:29:39;95611.66;;;1.79;100.00
5913;BME280;2982;42.684;23.356;2023-02-18T01:32:04;95609.16;;;1.77;100.00
5913;BME280;2982;42.684;23.356;2023-02-18T01:34:30;95605.84;;;1.74;100.00
5913;BME280;2982;42.684;23.356;2023-02-18T01:36:55;95599.22;;;1.70;100.00
5913;BME280;2982;42.684;23.356;2023-02-18T01:39:20;95598.44;;;1.62;100.00
5913;BME280;2982;42.684;23.356;2023-02-18T01:41:46;95605.94;;;1.65;100.00
5913;BME280;2982;42.684;23.356;2023-02-18T01:46:37;95606.75;;;1.64;100.00
5913;BME280;2982;42.684;23.356;2023-02-18T01:49:02;95608.47;;;1.60;100.00
5913;BME280;2982;42.684;23.356;2023-02-18T01:51:30;95625.94;;;1.69;100.00
5913;BME280;2982;42.684;23.356;2023-02-18T01:56:34;95630.13;;;1.64;100.00
5913;BME280;2982;42.684;23.356;2023-02-18T01:59:02;95628.47;;;1.65;100.00
5913;BME280;2982;42.684;23.356;2023-02-18T02:01:31;95625.19;;;1.58;100.00
5913;BME280;2982;42.684;23.356;2023-02-18T02:03:57;95601.94;;;1.44;100.00
5913;BME280;2982;42.684;23.356;2023-02-18T02:06:23;95615.22;;;1.54;100.00
5913;BME280;2982;42.684;23.356;2023-02-18T02:08:50;95610.16;;;1.57;100.00
5913;BME280;2982;42.684;23.356;2023-02-18T02:25:19;95627.69;;;1.55;100.00
5913;BME280;2982;42.684;23.356;2023-02-18T02:36:52;95607.69;;;1.52;100.00
5913;BME280;2982;42.684;23.356;2023-02-18T02:47:50;95589.41;;;1.44;100.00
5913;BME280;2982;42.684;23.356;2023-02-18T02:50:33;95593.59;;;1.41;100.00
5913;BME280;2982;42.684;23.356;2023-02-18T02:53:05;95595.22;;;1.48;100.00
5913;BME280;2982;42.684;23.356;2023-02-18T02:55:35;95592.75;;;1.40;100.00
5913;BME280;2982;42.684;23.356;2023-02-18T02:58:00;95607.75;;;1.46;100.00
5913;BME280;2982;42.684;23.356;2023-02-18T03:09:38;95590.19;;;1.52;100.00
5913;BME280;2982;42.684;23.356;2023-02-18T03:12:30;95594.31;;;1.56;100.00
5913;BME280;2982;42.684;23.356;2023-02-18T03:17:24;95600.19;;;1.52;100.00
5913;BME280;2982;42.684;23.356;2023-02-18T03:19:56;95605.22;;;1.46;100.00
5913;BME280;2982;42.684;23.356;2023-02-18T03:22:29;95606.03;;;1.51;100.00
5913;BME280;2982;42.684;23.356;2023-02-18T03:24:55;95616.84;;;1.55;100.00
5913;BME280;2982;42.684;23.356;2023-02-18T03:27:32;95631.91;;;1.52;100.00
5913;BME280;2982;42.684;23.356;2023-02-18T03:30:16;95642.72;;;1.58;100.00
5913;BME280;2982;42.684;23.356;2023-02-18T03:32:45;95652.75;;;1.58;100.00
5913;BME280;2982;42.684;23.356;2023-02-18T03:35:15;95648.56;;;1.54;100.00
5913;BME280;2982;42.684;23.356;2023-02-18T03:37:55;95659.47;;;1.49;100.00
5913;BME280;2982;42.684;23.356;2023-02-18T03:40:23;95653.59;;;1.53;100.00
5913;BME280;2982;42.684;23.356;2023-02-18T03:42:48;95651.94;;;1.53;100.00
5913;BME280;2982;42.684;23.356;2023-02-18T03:45:13;95654.50;;;1.44;100.00
5913;BME280;2982;42.684;23.356;2023-02-18T03:47:39;95656.16;;;1.44;100.00
5913;BME280;2982;42.684;23.356;2023-02-18T03:50:05;95662.81;;;1.46;100.00
5913;BME280;2982;42.684;23.356;2023-02-18T03:52:30;95667.88;;;1.37;100.00
5913;BME280;2982;42.684;23.356;2023-02-18T03:54:55;95671.25;;;1.35;100.00
5913;BME280;2982;42.684;23.356;2023-02-18T03:57:21;95660.41;;;1.28;100.00
5913;BME280;2982;42.684;23.356;2023-02-18T03:59:46;95644.66;;;1.15;100.00
5913;BME280;2982;42.684;23.356;2023-02-18T04:02:11;95654.63;;;1.20;100.00
5913;BME280;2982;42.684;23.356;2023-02-18T04:04:36;95655.44;;;1.22;100.00
5913;BME280;2982;42.684;23.356;2023-02-18T04:07:02;95652.94;;;1.22;100.00
5913;BME280;2982;42.684;23.356;2023-02-18T04:09:27;95631.31;;;1.09;100.00
5913;BME280;2982;42.684;23.356;2023-02-18T04:11:52;95647.97;;;1.16;100.00
5913;BME280;2982;42.684;23.356;2023-02-18T04:14:18;95643.81;;;1.13;100.00
5913;BME280;2982;42.684;23.356;2023-02-18T04:16:43;95648.78;;;1.18;100.00
5913;BME280;2982;42.684;23.356;2023-02-18T04:19:08;95640.41;;;1.23;100.00
5913;BME280;2982;42.684;23.356;2023-02-18T04:21:34;95621.25;;;1.25;100.00
5913;BME280;2982;42.684;23.356;2023-02-18T04:23:59;95630.38;;;1.26;100.00
5913;BME280;2982;42.684;23.356;2023-02-18T04:26:24;95629.56;;;1.23;100.00
5913;BME280;2982;42.684;23.356;2023-02-18T04:28:50;95628.75;;;1.22;100.00
5913;BME280;2982;42.684;23.356;2023-02-18T04:31:15;95627.03;;;1.32;100.00
5913;BME280;2982;42.684;23.356;2023-02-18T04:33:40;95622.84;;;1.32;100.00
5913;BME280;2982;42.684;23.356;2023-02-18T04:36:06;95617.88;;;1.28;100.00
5913;BME280;2982;42.684;23.356;2023-02-18T04:38:31;95622.00;;;1.32;100.00
5913;BME280;2982;42.684;23.356;2023-02-18T04:40:56;95627.00;;;1.37;100.00
5913;BME280;2982;42.684;23.356;2023-02-18T04:43:21;95626.16;;;1.36;100.00
5913;BME280;2982;42.684;23.356;2023-02-18T04:45:47;95629.50;;;1.38;100.00
5913;BME280;2982;42.684;23.356;2023-02-18T04:48:12;95639.47;;;1.44;100.00
5913;BME280;2982;42.684;23.356;2023-02-18T04:50:37;95636.09;;;1.48;100.00
5913;BME280;2982;42.684;23.356;2023-02-18T04:53:03;95631.91;;;1.53;100.00
5913;BME280;2982;42.684;23.356;2023-02-18T04:55:28;95630.22;;;1.54;100.00
5913;BME280;2982;42.684;23.356;2023-02-18T04:57:53;95641.00;;;1.68;100.00
5913;BME280;2982;42.684;23.356;2023-02-18T05:00:19;95634.28;;;1.70;100.00
5913;BME280;2982;42.684;23.356;2023-02-18T05:02:45;95630.91;;;1.75;100.00
5913;BME280;2982;42.684;23.356;2023-02-18T05:05:11;95649.19;;;1.87;100.00
5913;BME280;2982;42.684;23.356;2023-02-18T05:07:37;95660.00;;;1.87;100.00
5913;BME280;2982;42.684;23.356;2023-02-18T05:10:03;95657.50;;;1.90;100.00
5913;BME280;2982;42.684;23.356;2023-02-18T05:12:29;95636.56;;;1.97;100.00
5913;BME280;2982;42.684;23.356;2023-02-18T05:14:54;95624.03;;;1.99;100.00
5913;BME280;2982;42.684;23.356;2023-02-18T05:17:19;95631.50;;;2.05;100.00
5913;BME280;2982;42.684;23.356;2023-02-18T05:19:45;95635.75;;;1.95;100.00
5913;BME280;2982;42.684;23.356;2023-02-18T05:22:10;95631.53;;;1.97;100.00
5913;BME280;2982;42.684;23.356;2023-02-18T05:24:35;95628.25;;;1.95;100.00
5913;BME280;2982;42.684;23.356;2023-02-18T05:27:00;95618.25;;;1.91;100.00
5913;BME280;2982;42.684;23.356;2023-02-18T05:29:26;95615.84;;;1.82;100.00
5913;BME280;2982;42.684;23.356;2023-02-18T05:31:51;95629.06;;;1.96;100.00
5913;BME280;2982;42.684;23.356;2023-02-18T05:34:17;95637.41;;;1.96;100.00
5913;BME280;2982;42.684;23.356;2023-02-18T05:36:42;95627.38;;;1.96;100.00
5913;BME280;2982;42.684;23.356;2023-02-18T05:39:07;95609.13;;;1.87;100.00
5913;BME280;2982;42.684;23.356;2023-02-18T05:41:32;95637.34;;;2.01;100.00
5913;BME280;2982;42.684;23.356;2023-02-18T05:43:58;95629.78;;;2.07;100.00
5913;BME280;2982;42.684;23.356;2023-02-18T05:46:23;95623.91;;;2.11;100.00
5913;BME280;2982;42.684;23.356;2023-02-18T05:48:48;95620.47;;;2.21;100.00
5913;BME280;2982;42.684;23.356;2023-02-18T05:51:14;95636.22;;;2.34;100.00
5913;BME280;2982;42.684;23.356;2023-02-18T05:53:40;95627.06;;;2.30;100.00
5913;BME280;2982;42.684;23.356;2023-02-18T05:56:06;95626.22;;;2.32;100.00
5913;BME280;2982;42.684;23.356;2023-02-18T05:58:31;95637.75;;;2.48;100.00
5913;BME280;2982;42.684;23.356;2023-02-18T06:00:57;95657.50;;;2.76;100.00
5913;BME280;2982;42.684;23.356;2023-02-18T06:03:22;95650.63;;;2.93;100.00
5913;BME280;2982;42.684;23.356;2023-02-18T06:05:51;95661.28;;;3.12;100.00
5913;BME280;2982;42.684;23.356;2023-02-18T06:08:17;95621.16;;;3.08;100.00
5913;BME280;2982;42.684;23.356;2023-02-18T06:10:42;95644.88;;;3.49;100.00
5913;BME280;2982;42.684;23.356;2023-02-18T06:13:07;95653.06;;;3.63;100.00
5913;BME280;2982;42.684;23.356;2023-02-18T06:15:33;95647.78;;;3.78;100.00
5913;BME280;2982;42.684;23.356;2023-02-18T06:17:58;95658.47;;;3.92;100.00
5913;BME280;2982;42.684;23.356;2023-02-18T06:20:23;95644.81;;;4.07;100.00
5913;BME280;2982;42.684;23.356;2023-02-18T06:22:48;95634.66;;;4.15;100.00
5913;BME280;2982;42.684;23.356;2023-02-18T06:25:14;95644.63;;;4.19;100.00
5913;BME280;2982;42.684;23.356;2023-02-18T06:27:39;95641.91;;;4.31;100.00
5913;BME280;2982;42.684;23.356;2023-02-18T06:30:05;95635.78;;;4.44;100.00
5913;BME280;2982;42.684;23.356;2023-02-18T06:32:30;95601.81;;;4.24;100.00
5913;BME280;2982;42.684;23.356;2023-02-18T06:34:56;95606.63;;;4.34;100.00
5913;BME280;2982;42.684;23.356;2023-02-18T06:37:21;95631.44;;;4.53;100.00
5913;BME280;2982;42.684;23.356;2023-02-18T06:39:46;95616.59;;;4.39;100.00
5913;BME280;2982;42.684;23.356;2023-02-18T06:42:11;95640.53;;;4.61;100.00
5913;BME280;2982;42.684;23.356;2023-02-18T06:44:37;95650.34;;;4.75;100.00
5913;BME280;2982;42.684;23.356;2023-02-18T06:47:02;95638.50;;;4.80;100.00
5913;BME280;2982;42.684;23.356;2023-02-18T06:49:27;95639.75;;;5.01;100.00
5913;BME280;2982;42.684;23.356;2023-02-18T06:51:53;95635.19;;;5.19;100.00
5913;BME280;2982;42.684;23.356;2023-02-18T06:54:18;95625.81;;;5.26;100.00
5913;BME280;2982;42.684;23.356;2023-02-18T06:56:43;95639.59;;;5.48;100.00
5913;BME280;2982;42.684;23.356;2023-02-18T06:59:08;95651.66;;;5.72;100.00
5913;BME280;2982;42.684;23.356;2023-02-18T07:01:34;95652.28;;;5.82;100.00
5913;BME280;2982;42.684;23.356;2023-02-18T07:03:59;95624.69;;;5.76;100.00
5913;BME280;2982;42.684;23.356;2023-02-18T07:06:24;95632.56;;;5.99;100.00
5913;BME280;2982;42.684;23.356;2023-02-18T07:08:50;95614.78;;;6.05;100.00
5913;BME280;2982;42.684;23.356;2023-02-18T07:11:15;95635.88;;;6.35;99.02
5913;BME280;2982;42.684;23.356;2023-02-18T07:13:40;95616.00;;;6.25;95.17
5913;BME280;2982;42.684;23.356;2023-02-18T07:16:05;95638.78;;;6.54;94.62
5913;BME280;2982;42.684;23.356;2023-02-18T07:18:31;95633.22;;;6.74;91.08
5913;BME280;2982;42.684;23.356;2023-02-18T07:20:56;95631.59;;;6.71;90.27
5913;BME280;2982;42.684;23.356;2023-02-18T07:23:21;95628.03;;;6.78;90.74
5913;BME280;2982;42.684;23.356;2023-02-18T07:25:47;95627.47;;;6.99;89.77
5913;BME280;2982;42.684;23.356;2023-02-18T07:28:12;95626.50;;;7.03;86.63
5913;BME280;2982;42.684;23.356;2023-02-18T07:30:37;95625.41;;;7.12;86.43
5913;BME280;2982;42.684;23.356;2023-02-18T07:33:02;95631.19;;;7.16;85.26
5913;BME280;2982;42.684;23.356;2023-02-18T07:35:28;95639.63;;;7.15;83.69
5913;BME280;2982;42.684;23.356;2023-02-18T07:37:53;95644.88;;;7.08;83.23
5913;BME280;2982;42.684;23.356;2023-02-18T07:40:20;95650.06;;;7.04;83.33
5913;BME280;2982;42.684;23.356;2023-02-18T07:42:45;95644.72;;;6.84;84.56
5913;BME280;2982;42.684;23.356;2023-02-18T07:45:11;95647.63;;;6.70;86.20
5913;BME280;2982;42.684;23.356;2023-02-18T07:47:37;95631.47;;;6.76;87.25
5913;BME280;2982;42.684;23.356;2023-02-18T07:50:03;95619.72;;;6.75;85.60
5913;BME280;2982;42.684;23.356;2023-02-18T07:52:28;95648.28;;;7.07;86.10
5913;BME280;2982;42.684;23.356;2023-02-18T07:54:54;95655.09;;;7.33;84.84
5913;BME280;2982;42.684;23.356;2023-02-18T07:57:19;95652.72;;;7.58;82.28
5913;BME280;2982;42.684;23.356;2023-02-18T07:59:44;95640.59;;;7.69;81.20
5913;BME280;2982;42.684;23.356;2023-02-18T08:02:17;95640.50;;;7.98;80.50
5913;BME280;2982;42.684;23.356;2023-02-18T08:04:43;95631.94;;;8.03;78.23
5913;BME280;2982;42.684;23.356;2023-02-18T08:07:12;95636.16;;;8.30;76.42
5913;BME280;2982;42.684;23.356;2023-02-18T08:09:38;95623.50;;;8.28;76.54
5913;BME280;2982;42.684;23.356;2023-02-18T08:12:03;95641.34;;;8.76;73.81
5913;BME280;2982;42.684;23.356;2023-02-18T08:14:29;95635.47;;;8.99;71.86
5913;BME280;2982;42.684;23.356;2023-02-18T08:16:54;95637.16;;;9.45;69.19
5913;BME280;2982;42.684;23.356;2023-02-18T08:19:19;95619.06;;;9.54;67.83
5913;BME280;2982;42.684;23.356;2023-02-18T08:21:44;95596.94;;;9.58;66.26
5913;BME280;2982;42.684;23.356;2023-02-18T08:24:10;95625.53;;;10.05;66.11
5913;BME280;2982;42.684;23.356;2023-02-18T08:26:35;95625.56;;;10.47;63.26
5913;BME280;2982;42.684;23.356;2023-02-18T08:29:00;95630.44;;;10.72;61.18
5913;BME280;2982;42.684;23.356;2023-02-18T08:31:28;95618.56;;;10.72;60.37
5913;BME280;2982;42.684;23.356;2023-02-18T08:33:55;95615.78;;;10.38;60.85
5913;BME280;2982;42.684;23.356;2023-02-18T08:36:21;95629.44;;;10.35;60.63
5913;BME280;2982;42.684;23.356;2023-02-18T08:38:47;95612.41;;;10.37;60.66
5913;BME280;2982;42.684;23.356;2023-02-18T08:41:13;95617.38;;;10.40;60.25
5913;BME280;2982;42.684;23.356;2023-02-18T08:43:39;95601.66;;;10.51;60.78
5913;BME280;2982;42.684;23.356;2023-02-18T08:46:04;95612.84;;;10.67;58.51
5913;BME280;2982;42.684;23.356;2023-02-18T08:48:30;95610.69;;;10.58;58.38
5913;BME280;2982;42.684;23.356;2023-02-18T08:50:55;95614.56;;;10.26;58.96
5913;BME280;2982;42.684;23.356;2023-02-18T08:53:21;95615.69;;;10.19;60.67
5913;BME280;2982;42.684;23.356;2023-02-18T08:55:46;95605.16;;;10.28;59.19
5913;BME280;2982;42.684;23.356;2023-02-18T08:58:12;95616.84;;;10.52;59.19
5913;BME280;2982;42.684;23.356;2023-02-18T09:00:39;95610.16;;;10.70;58.04
5913;BME280;2982;42.684;23.356;2023-02-18T09:03:04;95622.25;;;10.65;58.53
5913;BME280;2982;42.684;23.356;2023-02-18T09:05:30;95615.97;;;10.53;57.95
5913;BME280;2982;42.684;23.356;2023-02-18T09:07:55;95600.66;;;10.35;58.20
5913;BME280;2982;42.684;23.356;2023-02-18T09:10:21;95605.03;;;10.31;58.42
5913;BME280;2982;42.684;23.356;2023-02-18T09:12:46;95606.81;;;10.29;58.99
5913;BME280;2982;42.684;23.356;2023-02-18T09:15:12;95623.06;;;10.66;58.66
5913;BME280;2982;42.684;23.356;2023-02-18T09:17:37;95614.56;;;10.87;57.73
5913;BME280;2982;42.684;23.356;2023-02-18T09:20:03;95624.31;;;10.96;57.16
5913;BME280;2982;42.684;23.356;2023-02-18T09:22:29;95620.06;;;11.15;56.92
5913;BME280;2982;42.684;23.356;2023-02-18T09:24:54;95607.03;;;11.23;55.86
5913;BME280;2982;42.684;23.356;2023-02-18T09:27:20;95620.47;;;11.25;55.72
5913;BME280;2982;42.684;23.356;2023-02-18T09:29:45;95614.88;;;11.18;56.09
5913;BME280;2982;42.684;23.356;2023-02-18T09:32:11;95588.19;;;11.45;56.27
5913;BME280;2982;42.684;23.356;2023-02-18T09:34:36;95601.78;;;11.82;55.01
5913;BME280;2982;42.684;23.356;2023-02-18T09:37:02;95588.19;;;12.00;54.30
5913;BME280;2982;42.684;23.356;2023-02-18T09:39:27;95593.16;;;12.20;53.95
5913;BME280;2982;42.684;23.356;2023-02-18T09:41:58;95590.47;;;12.41;52.94
5913;BME280;2982;42.684;23.356;2023-02-18T09:44:31;95575.94;;;12.75;51.87
5913;BME280;2982;42.684;23.356;2023-02-18T09:47:08;95590.88;;;12.99;51.50
5913;BME280;2982;42.684;23.356;2023-02-18T09:49:40;95587.81;;;13.25;50.81
5913;BME280;2982;42.684;23.356;2023-02-18T09:52:14;95595.97;;;13.32;48.62
5913;BME280;2982;42.684;23.356;2023-02-18T09:54:41;95593.75;;;13.26;48.86
5913;BME280;2982;42.684;23.356;2023-02-18T09:57:17;95591.53;;;13.51;48.56
5913;BME280;2982;42.684;23.356;2023-02-18T09:59:53;95590.78;;;13.17;48.82
5913;BME280;2982;42.684;23.356;2023-02-18T10:02:20;95584.94;;;12.98;49.46
5913;BME280;2982;42.684;23.356;2023-02-18T10:04:46;95587.44;;;13.00;49.31
5913;BME280;2982;42.684;23.356;2023-02-18T10:07:20;95579.47;;;13.06;49.54
5913;BME280;2982;42.684;23.356;2023-02-18T10:09:50;95563.25;;;13.07;48.95
5913;BME280;2982;42.684;23.356;2023-02-18T10:12:19;95567.19;;;13.30;49.02
5913;BME280;2982;42.684;23.356;2023-02-18T10:14:51;95558.75;;;13.59;48.30
5913;BME280;2982;42.684;23.356;2023-02-18T10:17:17;95553.72;;;13.89;47.36
5913;BME280;2982;42.684;23.356;2023-02-18T10:19:47;95559.69;;;14.03;46.53
5913;BME280;2982;42.684;23.356;2023-02-18T10:22:13;95563.03;;;14.49;46.45
5913;BME280;2982;42.684;23.356;2023-02-18T10:24:43;95561.41;;;14.77;45.51
5913;BME280;2982;42.684;23.356;2023-02-18T10:27:16;95561.34;;;14.92;44.61
5913;BME280;2982;42.684;23.356;2023-02-18T10:29:43;95553.81;;;15.04;43.91
5913;BME280;2982;42.684;23.356;2023-02-18T10:32:21;95552.28;;;14.73;43.83
5913;BME280;2982;42.684;23.356;2023-02-18T10:40:43;95549.25;;;14.66;44.84
5913;BME280;2982;42.684;23.356;2023-02-18T10:45:44;95530.25;;;15.13;43.26
5913;BME280;2982;42.684;23.356;2023-02-18T10:48:34;95524.13;;;15.15;43.11
5913;BME280;2982;42.684;23.356;2023-02-18T10:51:14;95507.63;;;15.33;42.67
5913;BME280;2982;42.684;23.356;2023-02-18T10:53:43;95497.19;;;15.51;42.25
5913;BME280;2982;42.684;23.356;2023-02-18T11:01:40;95506.72;;;16.53;39.66
5913;BME280;2982;42.684;23.356;2023-02-18T11:04:16;95498.63;;;16.71;39.44
5913;BME280;2982;42.684;23.356;2023-02-18T11:06:51;95481.81;;;16.42;39.14
5913;BME280;2982;42.684;23.356;2023-02-18T11:09:42;95492.44;;;16.49;39.63
5913;BME280;2982;42.684;23.356;2023-02-18T11:12:22;95487.75;;;16.55;37.97
5913;BME280;2982;42.684;23.356;2023-02-18T11:15:22;95480.97;;;16.54;38.48
5913;BME280;2982;42.684;23.356;2023-02-18T11:17:49;95478.41;;;16.67;38.80
5913;BME280;2982;42.684;23.356;2023-02-18T11:20:32;95469.91;;;16.79;38.59
5913;BME280;2982;42.684;23.356;2023-02-18T11:25:34;95465.19;;;16.35;36.46
5913;BME280;2982;42.684;23.356;2023-02-18T11:28:03;95460.16;;;16.21;36.23
5913;BME280;2982;42.684;23.356;2023-02-18T11:30:38;95450.88;;;15.80;36.46
5913;BME280;2982;42.684;23.356;2023-02-18T11:33:14;95441.53;;;15.79;36.87
5913;BME280;2982;42.684;23.356;2023-02-18T11:35:50;95447.28;;;15.83;36.74
5913;BME280;2982;42.684;23.356;2023-02-18T11:38:34;95443.88;;;15.70;36.46
5913;BME280;2982;42.684;23.356;2023-02-18T11:41:06;95431.16;;;15.68;36.83
5913;BME280;2982;42.684;23.356;2023-02-18T11:43:33;95430.38;;;15.80;36.80
5913;BME280;2982;42.684;23.356;2023-02-18T11:46:19;95427.09;;;15.78;36.90
5913;BME280;2982;42.684;23.356;2023-02-18T11:48:46;95415.41;;;15.74;36.90
5913;BME280;2982;42.684;23.356;2023-02-18T11:51:32;95370.13;;;15.35;37.13
5913;BME280;2982;42.684;23.356;2023-02-18T11:54:08;95418.50;;;15.79;37.35
5913;BME280;2982;42.684;23.356;2023-02-18T11:56:53;95412.47;;;15.93;37.35
5913;BME280;2982;42.684;23.356;2023-02-18T11:59:19;95407.44;;;15.92;37.38
5913;BME280;2982;42.684;23.356;2023-02-18T12:01:48;95407.13;;;15.96;37.42
5913;BME280;2982;42.684;23.356;2023-02-18T12:04:17;95389.41;;;16.06;37.20
5913;BME280;2982;42.684;23.356;2023-02-18T12:07:05;95374.34;;;16.01;37.28
5913;BME280;2982;42.684;23.356;2023-02-18T12:09:47;95378.66;;;16.13;37.67
5913;BME280;2982;42.684;23.356;2023-02-18T12:12:26;95387.34;;;16.36;37.85
5913;BME280;2982;42.684;23.356;2023-02-18T12:14:54;95388.03;;;16.51;37.35
5913;BME280;2982;42.684;23.356;2023-02-18T12:28:56;95375.06;;;16.16;38.53
5913;BME280;2982;42.684;23.356;2023-02-18T12:31:44;95373.72;;;16.10;38.86
5913;BME280;2982;42.684;23.356;2023-02-18T12:34:42;95362.44;;;16.13;39.15
5913;BME280;2982;42.684;23.356;2023-02-18T12:42:48;95346.97;;;16.27;39.59
5913;BME280;2982;42.684;23.356;2023-02-18T12:53:39;95324.75;;;16.51;39.16
5913;BME280;2982;42.684;23.356;2023-02-18T12:56:24;95328.31;;;16.61;38.47
5913;BME280;2982;42.684;23.356;2023-02-18T13:13:14;95342.09;;;17.32;36.22
5913;BME280;2982;42.684;23.356;2023-02-18T13:16:05;95315.78;;;17.17;36.10
5913;BME280;2982;42.684;23.356;2023-02-18T13:21:11;95327.53;;;17.43;36.00
5913;BME280;2982;42.684;23.356;2023-02-18T13:23:57;95319.25;;;17.40;36.20
5913;BME280;2982;42.684;23.356;2023-02-18T13:26:24;95323.09;;;17.34;35.93
5913;BME280;2982;42.684;23.356;2023-02-18T13:29:47;95322.94;;;17.01;36.92
5913;BME280;2982;42.684;23.356;2023-02-18T13:31:59;95332.31;;;16.89;37.54
5913;BME280;2982;42.684;23.356;2023-02-18T13:39:30;95329.16;;;16.49;39.28
5913;BME280;2982;42.684;23.356;2023-02-18T13:45:02;95336.69;;;16.27;40.13
5913;BME280;2982;42.684;23.356;2023-02-18T13:50:23;95315.94;;;15.94;40.79
5913;BME280;2982;42.684;23.356;2023-02-18T13:52:51;95326.59;;;16.00;40.78
5913;BME280;2982;42.684;23.356;2023-02-18T13:56:08;95310.59;;;16.09;40.76
5913;BME280;2982;42.684;23.356;2023-02-18T14:00:50;95319.94;;;15.85;40.96
5913;BME280;2982;42.684;23.356;2023-02-18T14:05:47;95312.44;;;15.69;40.95
5913;BME280;2982;42.684;23.356;2023-02-18T14:08:14;95309.97;;;15.55;41.07
5913;BME280;2982;42.684;23.356;2023-02-18T14:13:54;95325.50;;;15.39;41.83
5913;BME280;2982;42.684;23.356;2023-02-18T14:16:21;95303.84;;;15.18;41.83
5913;BME280;2982;42.684;23.356;2023-02-18T14:18:56;95323.34;;;15.21;41.89
5913;BME280;2982;42.684;23.356;2023-02-18T14:21:36;95322.59;;;15.19;42.19
5913;BME280;2982;42.684;23.356;2023-02-18T14:24:03;95329.34;;;15.20;42.35
5913;BME280;2982;42.684;23.356;2023-02-18T14:29:02;95330.56;;;15.14;42.74
5913;BME280;2982;42.684;23.356;2023-02-18T14:31:44;95329.84;;;15.12;42.24
5913;BME280;2982;42.684;23.356;2023-02-18T14:37:26;95329.19;;;14.96;42.46
5913;BME280;2982;42.684;23.356;2023-02-18T14:45:24;95336.63;;;14.86;43.03
5913;BME280;2982;42.684;23.356;2023-02-18T14:48:39;95330.16;;;14.81;44.04
5913;BME280;2982;42.684;23.356;2023-02-18T14:50:57;95320.50;;;14.72;43.72
5913;BME280;2982;42.684;23.356;2023-02-18T14:53:25;95326.53;;;14.71;43.63
5913;BME280;2982;42.684;23.356;2023-02-18T14:55:57;95318.59;;;14.61;43.86
5913;BME280;2982;42.684;23.356;2023-02-18T15:01:05;95308.50;;;14.60;44.06
5913;BME280;2982;42.684;23.356;2023-02-18T15:03:30;95313.69;;;14.58;44.15
5913;BME280;2982;42.684;23.356;2023-02-18T15:05:56;95306.78;;;14.46;44.93
5913;BME280;2982;42.684;23.356;2023-02-18T15:08:23;95303.78;;;14.39;45.07
5913;BME280;2982;42.684;23.356;2023-02-18T15:10:51;95319.03;;;14.27;45.14
5913;BME280;2982;42.684;23.356;2023-02-18T15:13:21;95315.56;;;14.14;45.07
5913;BME280;2982;42.684;23.356;2023-02-18T15:15:50;95321.06;;;14.07;45.20
5913;BME280;2982;42.684;23.356;2023-02-18T15:18:29;95313.19;;;13.96;45.73
5913;BME280;2982;42.684;23.356;2023-02-18T15:20:56;95327.81;;;13.94;45.80
5913;BME280;2982;42.684;23.356;2023-02-18T15:23:21;95308.63;;;13.87;46.29
5913;BME280;2982;42.684;23.356;2023-02-18T15:25:50;95306.63;;;13.78;46.33
5913;BME280;2982;42.684;23.356;2023-02-18T15:28:22;95316.28;;;13.73;46.40
5913;BME280;2982;42.684;23.356;2023-02-18T15:30:48;95308.09;;;13.68;46.99
5913;BME280;2982;42.684;23.356;2023-02-18T15:33:17;95290.03;;;13.57;47.15
5913;BME280;2982;42.684;23.356;2023-02-18T15:35:43;95302.88;;;13.55;47.26
5913;BME280;2982;42.684;23.356;2023-02-18T15:38:14;95295.41;;;13.52;47.98
5913;BME280;2982;42.684;23.356;2023-02-18T15:40:40;95294.94;;;13.46;47.75